Time;durP1;ratioP1;P1;durP2;ratioP2;P2;SDS_P1;SDS_P2;PMS_P1;PMS_P2;Temp;Humidity;BMP_temperature;BMP_pressure;BME280_temperature;BME280_humidity;BME280_pressure;Samples;Min_cycle;Max_cycle;Signal;HPM_P1;HPM_P2
2021/08/31 00:01:29;;;;;;;21.05;13.82;;;10.40;99.90;;;;;;5031643;28;20385;-85
2021/08/31 00:03:54;;;;;;;21.73;13.57;;;10.40;99.90;;;;;;5031304;28;20031;-85
2021/08/31 00:06:20;;;;;;;30.77;15.00;;;10.40;99.90;;;;;;5029940;28;20128;-85
2021/08/31 00:08:45;;;;;;;23.60;13.52;;;10.30;99.90;;;;;;5031705;28;20021;-85
2021/08/31 00:11:11;;;;;;;23.15;14.77;;;10.30;99.90;;;;;;5031342;28;20116;-85
2021/08/31 00:13:37;;;;;;;22.55;13.55;;;10.30;99.90;;;;;;5034161;28;20033;-85
2021/08/31 00:16:02;;;;;;;22.23;14.00;;;10.30;99.90;;;;;;5033518;28;20029;-85
2021/08/31 00:18:28;;;;;;;23.27;14.23;;;10.30;99.90;;;;;;5033971;28;20029;-85
2021/08/31 00:20:53;;;;;;;20.13;12.48;;;10.20;99.90;;;;;;5035372;28;20017;-84
2021/08/31 00:23:19;;;;;;;20.65;12.05;;;10.20;99.90;;;;;;5035364;28;20033;-85
2021/08/31 00:25:45;;;;;;;22.17;12.68;;;10.20;99.90;;;;;;5034977;28;20122;-85
2021/08/31 00:28:10;;;;;;;18.02;12.18;;;10.10;99.90;;;;;;5035052;28;20061;-85
2021/08/31 00:30:36;;;;;;;17.92;12.63;;;10.00;99.90;;;;;;5033897;28;20030;-85
2021/08/31 00:33:01;;;;;;;20.38;12.30;;;10.00;99.90;;;;;;5034960;28;20080;-85
2021/08/31 00:35:27;;;;;;;20.48;12.52;;;10.00;99.90;;;;;;5033543;28;20084;-85
2021/08/31 00:37:52;;;;;;;19.90;11.93;;;10.00;99.90;;;;;;5034809;28;20028;-85
2021/08/31 00:40:19;;;;;;;22.58;13.07;;;10.00;99.90;;;;;;5033784;28;20477;-85
2021/08/31 00:42:44;;;;;;;22.70;12.25;;;10.00;99.90;;;;;;5034918;28;20144;-84
2021/08/31 00:45:10;;;;;;;23.23;12.55;;;10.00;99.90;;;;;;5034776;28;20069;-85
2021/08/31 00:47:36;;;;;;;18.15;11.55;;;10.00;99.90;;;;;;5034472;28;20106;-85
2021/08/31 00:50:03;;;;;;;19.35;12.05;;;10.00;99.90;;;;;;5034846;28;20026;-85
2021/08/31 00:52:29;;;;;;;23.20;12.82;;;10.00;99.90;;;;;;5034670;28;20048;-85
2021/08/31 00:54:54;;;;;;;21.65;12.48;;;9.90;99.90;;;;;;5034502;28;20470;-85
2021/08/31 00:57:21;;;;;;;22.27;13.07;;;9.90;99.90;;;;;;5034360;28;20045;-85
2021/08/31 00:59:47;;;;;;;20.67;12.63;;;9.80;99.90;;;;;;5033174;28;20025;-85
2021/08/31 01:02:13;;;;;;;21.48;11.15;;;9.80;99.90;;;;;;5034499;28;20394;-85
2021/08/31 01:04:39;;;;;;;26.95;13.82;;;9.80;99.90;;;;;;5033028;28;20026;-85
2021/08/31 01:07:04;;;;;;;26.10;12.70;;;9.80;99.90;;;;;;5033231;28;20124;-85
2021/08/31 01:09:30;;;;;;;18.40;11.05;;;9.80;99.90;;;;;;5033006;28;20067;-85
2021/08/31 01:11:57;;;;;;;21.40;11.18;;;9.70;99.90;;;;;;5033248;28;20022;-85
2021/08/31 01:14:24;;;;;;;22.00;12.50;;;9.70;99.90;;;;;;5032808;28;20075;-85
2021/08/31 01:16:50;;;;;;;22.50;12.27;;;9.70;99.90;;;;;;5034265;28;20022;-85
2021/08/31 01:19:30;;;;;;;24.00;11.88;;;9.70;99.90;;;;;;5034036;28;20470;-85
2021/08/31 01:21:59;;;;;;;35.28;12.07;;;9.70;99.90;;;;;;5033072;28;20049;-85
2021/08/31 01:24:25;;;;;;;15.38;11.10;;;9.70;99.90;;;;;;5031805;28;20055;-85
2021/08/31 01:26:52;;;;;;;17.30;11.73;;;9.60;99.90;;;;;;5034309;28;20026;-85
2021/08/31 01:29:18;;;;;;;19.52;11.32;;;9.70;99.90;;;;;;5033739;28;20082;-85
2021/08/31 01:31:43;;;;;;;25.23;12.07;;;9.60;99.90;;;;;;5033859;28;20022;-84
2021/08/31 01:34:09;;;;;;;27.50;11.43;;;9.60;99.90;;;;;;5032564;28;20409;-84
2021/08/31 01:36:34;;;;;;;20.25;12.20;;;9.50;99.90;;;;;;5033961;28;20025;-85
2021/08/31 01:39:00;;;;;;;14.88;9.80;;;9.50;99.90;;;;;;5032514;28;20029;-85
2021/08/31 01:41:26;;;;;;;20.95;10.90;;;9.50;99.90;;;;;;5033879;28;20049;-85
2021/08/31 01:43:52;;;;;;;17.15;10.75;;;9.50;99.90;;;;;;5033525;28;20029;-85
2021/08/31 01:46:18;;;;;;;21.98;11.55;;;9.40;99.90;;;;;;5032503;28;20047;-84
2021/08/31 01:48:44;;;;;;;19.15;10.57;;;9.40;99.90;;;;;;5032297;28;20109;-84
2021/08/31 01:51:10;;;;;;;19.90;10.65;;;9.40;99.90;;;;;;5032064;28;20559;-85
2021/08/31 01:53:36;;;;;;;17.40;11.05;;;9.30;99.90;;;;;;5013759;28;20036;-85
2021/08/31 01:56:02;;;;;;;20.10;11.35;;;9.40;99.90;;;;;;5012315;28;20113;-85
2021/08/31 01:58:28;;;;;;;19.63;10.38;;;9.30;99.90;;;;;;5013601;28;20029;-84
2021/08/31 02:00:54;;;;;;;18.80;10.50;;;9.30;99.90;;;;;;5028726;28;20029;-85
2021/08/31 02:03:20;;;;;;;20.33;10.52;;;9.30;99.90;;;;;;5032192;28;20032;-85
2021/08/31 02:05:45;;;;;;;18.17;10.85;;;9.30;99.90;;;;;;5031887;28;20029;-84
2021/08/31 02:08:11;;;;;;;13.10;9.00;;;9.30;99.90;;;;;;5033386;28;20056;-84
2021/08/31 02:10:37;;;;;;;19.25;11.43;;;9.30;99.90;;;;;;5033109;28;20512;-85
2021/08/31 02:13:03;;;;;;;17.77;10.57;;;9.20;99.90;;;;;;5031913;28;20029;-85
2021/08/31 02:15:29;;;;;;;14.88;10.07;;;9.20;99.90;;;;;;5032878;28;20017;-85
2021/08/31 02:17:55;;;;;;;19.33;10.98;;;9.20;99.90;;;;;;5033207;28;20021;-84
2021/08/31 02:20:20;;;;;;;18.38;10.82;;;9.20;99.90;;;;;;5031338;28;20028;-84
2021/08/31 02:22:46;;;;;;;17.38;9.93;;;9.20;99.90;;;;;;5031613;28;20025;-84
2021/08/31 02:25:11;;;;;;;17.45;10.15;;;9.20;99.90;;;;;;5031380;28;20091;-85
2021/08/31 02:27:37;;;;;;;19.70;12.00;;;9.10;99.90;;;;;;5032865;28;20037;-85
2021/08/31 02:30:05;;;;;;;16.30;10.55;;;9.10;99.90;;;;;;5031628;28;20021;-85
2021/08/31 02:32:31;;;;;;;20.27;10.85;;;9.20;99.90;;;;;;5032469;28;20034;-85
2021/08/31 02:34:56;;;;;;;14.98;9.48;;;9.20;99.90;;;;;;5030265;28;20029;-84
2021/08/31 02:37:22;;;;;;;17.02;10.25;;;9.10;99.90;;;;;;5031612;28;20025;-85
2021/08/31 02:39:47;;;;;;;20.40;10.77;;;9.10;99.90;;;;;;5032844;28;20545;-85
2021/08/31 02:42:13;;;;;;;16.63;9.25;;;9.10;99.90;;;;;;5031099;28;20033;-85
2021/08/31 02:44:39;;;;;;;16.55;9.85;;;9.00;99.90;;;;;;5031113;28;20033;-84
2021/08/31 02:47:04;;;;;;;17.67;9.18;;;9.00;99.90;;;;;;5032604;28;20044;-85
2021/08/31 02:49:30;;;;;;;18.70;10.63;;;8.90;99.90;;;;;;5031403;28;20040;-85
2021/08/31 02:51:55;;;;;;;14.95;9.52;;;8.90;99.90;;;;;;5031993;28;20033;-85
2021/08/31 02:54:21;;;;;;;16.95;10.07;;;8.90;99.90;;;;;;5030893;28;20032;-85
2021/08/31 02:56:47;;;;;;;17.65;10.63;;;8.90;99.90;;;;;;5031218;28;20025;-84
2021/08/31 02:59:13;;;;;;;21.48;10.43;;;8.90;99.90;;;;;;5032361;28;20053;-84
2021/08/31 03:02:04;;;;;;;15.85;9.90;;;9.00;99.90;;;;;;5032042;28;20385;-84
2021/08/31 03:04:25;;;;;;;15.88;10.30;;;8.90;99.90;;;;;;5031983;28;20756;-84
2021/08/31 03:06:50;;;;;;;21.90;9.93;;;8.90;99.90;;;;;;5031052;28;20498;-84
2021/08/31 03:09:16;;;;;;;17.35;9.63;;;8.80;99.90;;;;;;5031010;28;20056;-84
2021/08/31 03:11:42;;;;;;;17.17;9.68;;;8.80;99.90;;;;;;5032036;28;20030;-84
2021/08/31 03:14:07;;;;;;;17.00;10.40;;;8.80;99.90;;;;;;5030608;28;20025;-85
2021/08/31 03:16:33;;;;;;;20.60;11.27;;;8.80;99.90;;;;;;5031769;28;20116;-84
2021/08/31 03:18:59;;;;;;;19.80;10.85;;;8.80;99.90;;;;;;5032119;28;20026;-84
2021/08/31 03:21:25;;;;;;;28.02;11.68;;;8.80;99.90;;;;;;5032156;28;20458;-85
2021/08/31 03:23:50;;;;;;;19.60;11.85;;;8.80;99.90;;;;;;5031814;28;20033;-84
2021/08/31 03:26:16;;;;;;;21.85;11.63;;;8.90;99.90;;;;;;5030425;28;20120;-84
2021/08/31 03:28:42;;;;;;;21.35;11.02;;;8.90;99.90;;;;;;5030704;28;20075;-84
2021/08/31 03:31:07;;;;;;;19.17;10.05;;;8.90;99.90;;;;;;5030748;28;20393;-85
2021/08/31 03:33:33;;;;;;;18.88;10.98;;;8.80;99.90;;;;;;5031820;28;20036;-84
2021/08/31 03:35:59;;;;;;;19.85;10.88;;;8.80;99.90;;;;;;5031710;28;20041;-84
2021/08/31 03:38:24;;;;;;;17.05;10.02;;;8.80;99.90;;;;;;5030340;28;20030;-84
2021/08/31 03:40:50;;;;;;;17.83;10.45;;;8.70;99.90;;;;;;5030292;28;20021;-84
2021/08/31 03:43:16;;;;;;;17.40;10.63;;;8.70;99.90;;;;;;5031755;28;20042;-84
2021/08/31 03:45:41;;;;;;;17.42;10.85;;;8.60;99.90;;;;;;5031435;28;20374;-84
2021/08/31 03:48:07;;;;;;;16.85;10.38;;;8.60;99.90;;;;;;5030350;28;20029;-84
2021/08/31 03:50:32;;;;;;;16.08;9.68;;;8.60;99.90;;;;;;5030515;28;20469;-84
2021/08/31 03:52:58;;;;;;;15.38;9.32;;;8.60;99.90;;;;;;5030358;28;20036;-84
2021/08/31 03:55:24;;;;;;;22.52;11.65;;;8.60;99.90;;;;;;5030130;28;20112;-84
2021/08/31 03:57:49;;;;;;;18.08;10.52;;;8.50;99.90;;;;;;5031363;28;20021;-84
2021/08/31 04:00:15;;;;;;;17.63;10.00;;;8.60;99.90;;;;;;5030404;28;20057;-84
2021/08/31 04:02:41;;;;;;;15.55;9.20;;;8.50;99.90;;;;;;5031661;28;20022;-84
2021/08/31 04:05:07;;;;;;;15.68;10.02;;;8.50;99.90;;;;;;5031367;28;20032;-84
2021/08/31 04:07:33;;;;;;;14.93;9.57;;;8.50;99.90;;;;;;5029915;28;20126;-84
2021/08/31 04:09:58;;;;;;;17.23;10.55;;;8.50;99.90;;;;;;5030362;28;20482;-84
2021/08/31 04:12:24;;;;;;;14.82;9.95;;;8.40;99.90;;;;;;5030231;28;20513;-84
2021/08/31 04:14:49;;;;;;;16.63;11.07;;;8.40;99.90;;;;;;5031235;28;20021;-84
2021/08/31 04:17:15;;;;;;;20.80;13.05;;;8.40;99.90;;;;;;5030238;28;20524;-84
2021/08/31 04:19:41;;;;;;;28.38;13.27;;;8.40;99.90;;;;;;5031227;28;20037;-84
2021/08/31 04:22:07;;;;;;;24.08;12.13;;;8.50;99.90;;;;;;5031444;28;20449;-84
2021/08/31 04:24:33;;;;;;;20.15;12.48;;;8.50;99.90;;;;;;5031081;28;20398;-84
2021/08/31 04:26:58;;;;;;;30.63;15.82;;;8.60;99.90;;;;;;5031471;28;20022;-84
2021/08/31 04:29:24;;;;;;;22.38;14.27;;;8.60;99.90;;;;;;5029789;28;20025;-84
2021/08/31 04:31:49;;;;;;;25.95;14.00;;;8.70;99.90;;;;;;5030777;28;20471;-84
2021/08/31 04:34:15;;;;;;;29.30;17.30;;;8.70;99.90;;;;;;5029824;28;20389;-84
2021/08/31 04:36:42;;;;;;;24.75;14.82;;;8.70;99.90;;;;;;5031229;28;20018;-84
2021/08/31 04:39:07;;;;;;;29.85;14.57;;;8.70;99.90;;;;;;5030109;28;20060;-84
2021/08/31 04:41:33;;;;;;;29.48;14.15;;;8.60;99.90;;;;;;5030977;28;20061;-84
2021/08/31 04:43:59;;;;;;;29.92;14.73;;;8.70;99.90;;;;;;5030949;28;20025;-84
2021/08/31 04:46:24;;;;;;;30.75;15.00;;;8.60;99.90;;;;;;5031257;28;20040;-84
2021/08/31 04:48:50;;;;;;;20.38;13.23;;;8.60;99.90;;;;;;5029950;28;20064;-84
2021/08/31 04:51:15;;;;;;;27.35;14.02;;;8.50;99.90;;;;;;5030810;28;20037;-84
2021/08/31 04:53:41;;;;;;;18.52;11.55;;;8.60;99.90;;;;;;5029719;28;20124;-83
2021/08/31 04:56:06;;;;;;;19.88;11.88;;;8.50;99.90;;;;;;5029765;28;20022;-83
2021/08/31 04:58:32;;;;;;;21.40;11.65;;;8.60;99.90;;;;;;5031250;28;20022;-84
2021/08/31 05:00:57;;;;;;;19.85;11.52;;;8.60;99.90;;;;;;5034389;28;20394;-84
2021/08/31 05:03:23;;;;;;;19.58;12.25;;;8.60;99.90;;;;;;5034595;28;20033;-84
2021/08/31 05:05:49;;;;;;;20.08;12.00;;;8.60;99.90;;;;;;5032954;28;20503;-84
2021/08/31 05:08:14;;;;;;;22.20;11.80;;;8.70;99.90;;;;;;5033296;28;20128;-84
2021/08/31 05:10:40;;;;;;;25.00;13.43;;;8.70;99.90;;;;;;5034493;28;20029;-84
2021/08/31 05:13:05;;;;;;;22.48;13.07;;;8.80;99.90;;;;;;5034091;28;20155;-84
2021/08/31 05:15:31;;;;;;;24.38;15.07;;;8.90;99.90;;;;;;5034204;28;20061;-84
2021/08/31 05:17:58;;;;;;;24.67;13.25;;;9.00;99.90;;;;;;5033127;28;20095;-84
2021/08/31 05:20:27;;;;;;;27.45;13.25;;;9.10;99.90;;;;;;5032997;28;20022;-84
2021/08/31 05:22:53;;;;;;;22.38;12.30;;;9.10;99.90;;;;;;5033033;28;20560;-84
2021/08/31 05:25:19;;;;;;;20.98;12.90;;;9.20;99.90;;;;;;5033980;28;20037;-84
2021/08/31 05:27:44;;;;;;;29.48;15.07;;;9.40;99.90;;;;;;5034132;28;20091;-84
2021/08/31 05:30:10;;;;;;;26.65;14.65;;;9.50;99.90;;;;;;5032817;28;20040;-85
2021/08/31 05:32:36;;;;;;;25.73;12.32;;;9.60;99.90;;;;;;5033687;28;20057;-84
2021/08/31 05:35:01;;;;;;;22.77;13.02;;;9.70;99.90;;;;;;5033674;28;20092;-84
2021/08/31 05:37:27;;;;;;;25.35;14.80;;;9.80;99.90;;;;;;5033999;28;20052;-84
2021/08/31 05:39:52;;;;;;;28.08;15.07;;;9.80;99.90;;;;;;5032787;28;20854;-86
2021/08/31 05:42:18;;;;;;;26.30;14.25;;;9.90;99.90;;;;;;5033627;28;20465;-85
2021/08/31 05:44:43;;;;;;;23.90;13.57;;;10.00;99.90;;;;;;5033619;28;20029;-84
2021/08/31 05:47:09;;;;;;;22.15;13.60;;;10.20;99.90;;;;;;5034185;28;20394;-88
2021/08/31 05:49:35;;;;;;;25.33;12.93;;;10.30;99.90;;;;;;5033900;28;20029;-87
2021/08/31 05:52:01;;;;;;;19.83;13.00;;;10.30;99.90;;;;;;5033860;28;20098;-87
2021/08/31 05:54:27;;;;;;;22.00;12.80;;;10.40;99.90;;;;;;5031947;28;20029;-86
2021/08/31 05:56:54;;;;;;;19.05;12.70;;;10.40;99.90;;;;;;5033815;28;20018;-87
2021/08/31 05:59:20;;;;;;;25.75;14.07;;;10.60;99.90;;;;;;5032496;28;20045;-86
2021/08/31 06:01:46;;;;;;;26.40;12.30;;;10.70;99.90;;;;;;5027233;28;20525;-87
2021/08/31 06:04:12;;;;;;;25.08;12.07;;;10.80;99.90;;;;;;5023764;28;20660;-87
2021/08/31 06:06:38;;;;;;;22.48;12.18;;;10.90;99.90;;;;;;5032166;28;20026;-88
2021/08/31 06:09:05;;;;;;;21.25;12.20;;;10.90;99.90;;;;;;5031827;28;20029;-88
2021/08/31 06:11:32;;;;;;;18.38;11.88;;;11.00;99.90;;;;;;5033266;28;20028;-87
2021/08/31 06:13:58;;;;;;;23.58;12.77;;;11.10;99.90;;;;;;5031372;28;20037;-87
2021/08/31 06:16:24;;;;;;;25.08;12.65;;;11.20;99.90;;;;;;5032079;28;20044;-87
2021/08/31 06:18:49;;;;;;;21.45;11.25;;;11.30;99.90;;;;;;5033369;28;20049;-87
2021/08/31 06:21:15;;;;;;;21.02;12.07;;;11.40;99.90;;;;;;5032104;28;20021;-88
2021/08/31 06:23:40;;;;;;;24.60;10.65;;;11.50;99.90;;;;;;5033255;28;20030;-88
2021/08/31 06:26:06;;;;;;;17.35;11.68;;;11.60;99.90;;;;;;5022446;28;20033;-87
2021/08/31 06:28:33;;;;;;;17.20;10.88;;;11.70;99.90;;;;;;5028051;28;20457;-88
2021/08/31 06:30:59;;;;;;;15.50;10.98;;;11.90;99.90;;;;;;5029850;28;20056;-86
2021/08/31 06:33:24;;;;;;;19.13;11.15;;;12.00;99.90;;;;;;5027309;28;20033;-88
2021/08/31 06:35:50;;;;;;;17.05;10.38;;;12.10;99.90;;;;;;5027436;28;20029;-89
2021/08/31 06:38:16;;;;;;;22.00;11.27;;;12.10;99.90;;;;;;5028449;28;20087;-87
2021/08/31 06:40:42;;;;;;;16.88;10.63;;;12.40;99.90;;;;;;5027731;28;20556;-89
2021/08/31 06:43:08;;;;;;;13.45;9.20;;;12.60;99.90;;;;;;5027075;28;20029;-88
2021/08/31 06:45:33;;;;;;;21.73;9.88;;;12.70;99.90;;;;;;5028783;28;20029;-87
2021/08/31 06:47:59;;;;;;;15.75;10.20;;;12.90;99.90;;;;;;5023724;28;20026;-87
2021/08/31 06:50:24;;;;;;;17.92;10.50;;;12.90;99.90;;;;;;5012144;28;20053;-89
2021/08/31 06:52:50;;;;;;;15.43;9.60;;;13.10;99.90;;;;;;5011832;28;20071;-88
2021/08/31 06:55:16;;;;;;;17.55;10.43;;;13.30;99.90;;;;;;5011674;28;20026;-89
2021/08/31 06:57:42;;;;;;;16.88;10.48;;;13.30;99.90;;;;;;5029429;28;20032;-88
2021/08/31 07:00:08;;;;;;;13.85;9.77;;;13.60;99.90;;;;;;5032730;28;20021;-88
2021/08/31 07:02:34;;;;;;;18.73;10.57;;;13.70;99.90;;;;;;5032342;28;20025;-85
2021/08/31 07:05:00;;;;;;;15.10;9.35;;;13.80;99.90;;;;;;5030650;28;20495;-85
2021/08/31 07:07:26;;;;;;;13.77;10.02;;;14.00;99.90;;;;;;5032030;28;20033;-86
2021/08/31 07:09:52;;;;;;;14.32;9.57;;;14.30;99.90;;;;;;5031910;28;20040;-86
2021/08/31 07:12:17;;;;;;;20.40;9.88;;;14.30;99.90;;;;;;5030965;28;20478;-86
2021/08/31 07:14:43;;;;;;;15.02;10.07;;;14.50;99.90;;;;;;5030738;28;20021;-87
2021/08/31 07:17:08;;;;;;;20.10;11.43;;;14.70;99.90;;;;;;5032515;28;20021;-85
2021/08/31 07:19:34;;;;;;;16.50;10.00;;;14.70;99.90;;;;;;5032064;28;20022;-85
2021/08/31 07:22:00;;;;;;;18.42;11.70;;;14.70;99.90;;;;;;5031189;28;20087;-84
2021/08/31 07:24:25;;;;;;;13.10;9.40;;;15.00;99.90;;;;;;5031174;28;20033;-85
2021/08/31 07:26:51;;;;;;;13.65;9.68;;;14.90;99.90;;;;;;5030869;28;20482;-88
2021/08/31 07:29:17;;;;;;;16.67;10.55;;;15.10;99.90;;;;;;5023408;28;20018;-87
2021/08/31 07:31:43;;;;;;;27.67;10.73;;;15.40;99.90;;;;;;5027792;28;20032;-88
2021/08/31 07:34:09;;;;;;;28.80;10.85;;;15.50;99.90;;;;;;5028041;28;20033;-88
2021/08/31 07:36:34;;;;;;;14.57;10.35;;;15.70;99.90;;;;;;5027046;28;20199;-87
2021/08/31 07:39:00;;;;;;;17.52;9.73;;;15.80;99.90;;;;;;5027095;28;20032;-86
2021/08/31 07:41:27;;;;;;;15.98;10.13;;;15.90;99.90;;;;;;5027179;28;20080;-83
2021/08/31 07:43:53;;;;;;;15.27;9.68;;;16.00;99.90;;;;;;5026806;28;20032;-89
2021/08/31 07:46:20;;;;;;;16.13;10.85;;;16.10;99.90;;;;;;5026077;28;20037;-87
2021/08/31 07:48:45;;;;;;;18.10;9.35;;;16.20;99.90;;;;;;5027561;28;20108;-87
2021/08/31 07:51:11;;;;;;;15.45;10.55;;;16.40;99.90;;;;;;5025952;28;20116;-86
2021/08/31 07:53:38;;;;;;;15.52;11.18;;;16.60;99.90;;;;;;5027412;28;20033;-80
2021/08/31 07:56:04;;;;;;;17.50;10.65;;;16.50;99.90;;;;;;5026589;28;20539;-85
2021/08/31 07:58:29;;;;;;;15.93;10.57;;;16.60;99.90;;;;;;5023869;28;20060;-89
2021/08/31 08:00:55;;;;;;;14.48;9.88;;;16.80;99.90;;;;;;5026573;28;20057;-86
2021/08/31 08:03:21;;;;;;;17.98;10.55;;;16.90;99.90;;;;;;5025414;28;20497;-85
2021/08/31 08:05:46;;;;;;;16.40;10.88;;;17.00;99.90;;;;;;5027483;28;20026;-87
2021/08/31 08:08:12;;;;;;;17.73;10.98;;;17.00;99.90;;;;;;5026421;28;20031;-88
2021/08/31 08:10:37;;;;;;;18.02;11.10;;;17.10;99.90;;;;;;5027109;28;20485;-90
2021/08/31 08:13:03;;;;;;;15.82;11.60;;;17.30;99.90;;;;;;5025029;28;20034;-86
2021/08/31 08:15:29;;;;;;;18.55;11.25;;;17.40;99.90;;;;;;5011347;28;20057;-91
2021/08/31 08:17:56;;;;;;;19.88;11.95;;;17.40;99.90;;;;;;5010558;28;20109;-85
2021/08/31 08:20:22;;;;;;;20.02;10.82;;;17.70;99.90;;;;;;5026848;28;20482;-85
2021/08/31 08:22:47;;;;;;;19.55;10.43;;;17.80;99.90;;;;;;5016356;28;20083;-85
2021/08/31 08:25:13;;;;;;;17.92;10.13;;;17.80;99.90;;;;;;5029632;28;20041;-85
2021/08/31 08:27:39;;;;;;;17.13;11.23;;;18.00;99.90;;;;;;5030035;28;20029;-86
2021/08/31 08:30:05;;;;;;;25.30;11.13;;;18.10;99.90;;;;;;5029810;28;20386;-86
2021/08/31 08:32:31;;;;;;;17.02;11.73;;;18.40;99.90;;;;;;5032659;28;20026;-86
2021/08/31 08:34:56;;;;;;;17.40;10.27;;;18.50;99.90;;;;;;5034458;28;20025;-85
2021/08/31 08:37:22;;;;;;;19.67;11.25;;;18.40;99.90;;;;;;5033786;28;20045;-85
2021/08/31 08:39:48;;;;;;;21.23;11.98;;;18.60;99.90;;;;;;5035080;28;20482;-85
2021/08/31 08:42:14;;;;;;;19.60;12.18;;;18.70;99.90;;;;;;5034839;28;20478;-86
2021/08/31 08:44:40;;;;;;;17.35;10.85;;;18.60;99.90;;;;;;5034175;28;20025;-86
2021/08/31 08:47:06;;;;;;;16.27;11.18;;;18.80;99.90;;;;;;5034866;28;20048;-85
2021/08/31 08:49:31;;;;;;;23.20;12.13;;;19.10;99.90;;;;;;5034825;28;20028;-87
2021/08/31 08:51:59;;;;;;;17.30;10.95;;;19.20;99.90;;;;;;5033732;28;20033;-84
2021/08/31 08:54:25;;;;;;;19.55;11.52;;;19.30;99.90;;;;;;5032983;28;20571;-86
2021/08/31 08:56:52;;;;;;;19.42;10.70;;;19.50;99.90;;;;;;5033379;28;20025;-86
2021/08/31 08:59:19;;;;;;;18.90;11.18;;;19.60;99.90;;;;;;5034435;28;20026;-85
2021/08/31 09:01:48;;;;;;;15.30;10.85;;;19.90;99.90;;;;;;5034599;28;20052;-85
2021/08/31 09:04:16;;;;;;;18.45;11.05;;;20.10;99.90;;;;;;5033967;28;20026;-86
2021/08/31 09:06:43;;;;;;;15.05;11.05;;;20.00;99.90;;;;;;5033113;28;20022;-85
2021/08/31 09:09:10;;;;;;;19.88;11.73;;;20.00;99.90;;;;;;5033269;28;20050;-84
2021/08/31 09:11:46;;;;;;;14.82;11.40;;;20.20;99.90;;;;;;5033009;28;20029;-84
2021/08/31 09:14:27;;;;;;;19.95;11.48;;;20.30;99.90;;;;;;5033818;28;20397;-86
2021/08/31 09:17:04;;;;;;;15.30;10.48;;;20.30;99.90;;;;;;5034026;28;20022;-85
2021/08/31 09:19:31;;;;;;;18.38;11.00;;;20.50;99.90;;;;;;5033029;28;20117;-86
2021/08/31 09:22:12;;;;;;;19.85;12.13;;;20.50;99.90;;;;;;5032881;28;20033;-86
2021/08/31 09:24:38;;;;;;;20.67;12.02;;;20.70;99.90;;;;;;5033413;28;20056;-85
2021/08/31 09:27:04;;;;;;;22.45;11.98;;;20.60;99.90;;;;;;5014327;28;20026;-84
2021/08/31 09:29:38;;;;;;;15.68;11.13;;;20.70;99.90;;;;;;5013142;28;20030;-85
2021/08/31 09:32:09;;;;;;;18.13;10.93;;;20.90;99.90;;;;;;5014159;28;20018;-86
2021/08/31 09:34:43;;;;;;;15.63;10.50;;;20.90;99.90;;;;;;5013900;28;20494;-85
2021/08/31 09:37:29;;;;;;;20.27;10.63;;;21.00;99.90;;;;;;5031876;28;20033;-86
2021/08/31 09:40:03;;;;;;;28.00;10.20;;;21.10;99.90;;;;;;5032739;28;20405;-85
2021/08/31 09:42:29;;;;;;;31.85;11.00;;;21.30;99.90;;;;;;5033744;28;20596;-85
2021/08/31 09:45:06;;;;;;;17.50;10.40;;;21.40;99.90;;;;;;5032806;28;20100;-85
2021/08/31 09:47:36;;;;;;;15.63;10.60;;;21.80;99.90;;;;;;5032154;28;20030;-84
2021/08/31 09:50:06;;;;;;;19.58;11.02;;;21.80;99.90;;;;;;5033704;28;20029;-85
2021/08/31 09:52:32;;;;;;;19.67;11.30;;;21.80;99.90;;;;;;5033539;28;20120;-85
2021/08/31 09:54:58;;;;;;;13.57;10.07;;;21.90;99.90;;;;;;5033349;28;20094;-85
2021/08/31 09:57:38;;;;;;;16.40;11.13;;;22.00;99.90;;;;;;5033362;28;20022;-85
2021/08/31 10:00:10;;;;;;;13.95;9.85;;;21.80;99.90;;;;;;5033327;28;20029;-83
2021/08/31 10:02:40;;;;;;;25.75;11.13;;;22.00;99.90;;;;;;5033646;28;20033;-84
2021/08/31 10:05:06;;;;;;;12.52;9.57;;;22.00;99.90;;;;;;5032986;28;20032;-85
2021/08/31 10:07:32;;;;;;;17.10;10.57;;;22.20;99.90;;;;;;5033111;28;20022;-82
2021/08/31 10:09:59;;;;;;;14.63;9.23;;;22.20;99.90;;;;;;5033080;28;20040;-84
2021/08/31 10:12:25;;;;;;;13.57;9.32;;;22.50;99.90;;;;;;5031930;28;20032;-84
2021/08/31 10:14:54;;;;;;;14.38;9.07;;;22.60;99.90;;;;;;5031711;28;20025;-84
2021/08/31 10:17:22;;;;;;;14.07;9.40;;;22.80;99.90;;;;;;5032743;28;20493;-84
2021/08/31 10:19:50;;;;;;;13.15;9.00;;;22.80;99.90;;;;;;5031775;28;20079;-85
2021/08/31 10:22:17;;;;;;;10.60;8.27;;;22.90;99.90;;;;;;5031824;28;20029;-85
2021/08/31 10:24:44;;;;;;;13.00;8.15;;;23.20;99.90;;;;;;5032464;28;20156;-85
2021/08/31 10:27:30;;;;;;;11.07;7.38;;;23.40;99.90;;;;;;5031499;28;20107;-84
2021/08/31 10:30:14;;;;;;;13.70;7.60;;;23.60;99.90;;;;;;5032842;28;20813;-84
2021/08/31 10:32:41;;;;;;;11.13;8.65;;;23.80;99.90;;;;;;5031587;28;20508;-86
2021/08/31 10:35:08;;;;;;;11.32;8.15;;;23.70;99.90;;;;;;5031071;28;20026;-85
2021/08/31 10:37:45;;;;;;;18.35;8.05;;;23.80;99.90;;;;;;5032481;28;20051;-85
2021/08/31 10:40:11;;;;;;;12.25;8.80;;;23.60;99.90;;;;;;5032765;28;20017;-85
2021/08/31 10:42:36;;;;;;;10.07;8.10;;;23.30;99.90;;;;;;5032637;28;20116;-85
2021/08/31 10:45:25;;;;;;;9.50;6.97;;;23.70;99.90;;;;;;5031025;28;20164;-85
2021/08/31 10:47:52;;;;;;;13.02;8.25;;;23.90;99.90;;;;;;5031080;28;20030;-85
2021/08/31 10:50:27;;;;;;;11.05;7.82;;;24.10;99.90;;;;;;5031349;28;20025;-84
2021/08/31 10:53:06;;;;;;;10.43;7.93;;;24.00;99.90;;;;;;5030515;28;20025;-85
2021/08/31 10:55:38;;;;;;;15.40;7.60;;;23.70;99.90;;;;;;5029923;28;20021;-84
2021/08/31 10:58:08;;;;;;;15.32;7.82;;;23.80;99.90;;;;;;5032246;28;20022;-85
2021/08/31 11:00:34;;;;;;;14.63;6.65;;;23.90;99.90;;;;;;5032521;28;20505;-84
2021/08/31 11:03:01;;;;;;;11.65;7.25;;;24.20;99.90;;;;;;5032111;28;20060;-84
2021/08/31 11:05:28;;;;;;;12.77;7.20;;;24.40;99.90;;;;;;5031901;28;20026;-85
2021/08/31 11:07:57;;;;;;;12.60;7.82;;;24.60;99.90;;;;;;5032319;28;20029;-84
2021/08/31 11:10:24;;;;;;;11.95;7.40;;;24.60;99.90;;;;;;5030886;28;20025;-85
2021/08/31 11:12:51;;;;;;;9.43;6.68;;;24.40;99.90;;;;;;5030740;28;20053;-84
2021/08/31 11:15:25;;;;;;;14.10;5.60;;;24.30;99.90;;;;;;5031833;28;20021;-85
2021/08/31 11:17:51;;;;;;;;;;;24.50;99.90;;;;;;5031428;28;20028;-84
2021/08/31 11:20:30;;;;;;;9.65;6.10;;;24.60;99.90;;;;;;5032096;28;19912;-84
2021/08/31 11:23:17;;;;;;;11.65;5.15;;;25.00;99.90;;;;;;5030274;28;20048;-84
2021/08/31 11:26:01;;;;;;;11.93;5.85;;;25.10;99.90;;;;;;5031775;28;20033;-85
2021/08/31 11:28:33;;;;;;;13.07;6.40;;;25.10;99.90;;;;;;5030723;28;20509;-84
2021/08/31 11:31:04;;;;;;;8.75;5.80;;;24.40;99.90;;;;;;5031834;28;20026;-85
2021/08/31 11:33:37;;;;;;;10.85;5.20;;;24.30;99.90;;;;;;5030038;28;20037;-86
2021/08/31 11:36:08;;;;;;;8.20;5.53;;;24.40;99.90;;;;;;5030483;28;20021;-85
2021/08/31 11:38:36;;;;;;;9.15;5.45;;;24.30;99.90;;;;;;5030555;28;20036;-85
2021/08/31 11:41:19;;;;;;;6.82;5.15;;;24.60;99.90;;;;;;5030556;28;20021;-84
2021/08/31 11:43:50;;;;;;;6.25;4.47;;;24.80;99.90;;;;;;5031306;28;20033;-85
2021/08/31 11:46:27;;;;;;;7.93;4.63;;;25.10;99.90;;;;;;5030101;28;20056;-85
2021/08/31 11:49:14;;;;;;;6.68;4.32;;;25.70;99.90;;;;;;5031938;28;20059;-85
2021/08/31 11:51:42;;;;;;;7.90;4.63;;;26.00;99.90;;;;;;5030494;28;20030;-85
2021/08/31 11:54:14;;;;;;;10.27;4.95;;;26.20;99.90;;;;;;5030820;28;20490;-86
2021/08/31 11:56:41;;;;;;;16.05;5.13;;;26.50;99.90;;;;;;5030198;28;20025;-85
2021/08/31 11:59:08;;;;;;;7.35;4.53;;;26.30;99.90;;;;;;5031636;28;20500;-84
2021/08/31 12:01:34;;;;;;;6.55;4.43;;;26.40;99.90;;;;;;5030393;28;20112;-85
2021/08/31 12:04:21;;;;;;;9.00;5.43;;;26.50;99.90;;;;;;5031111;28;20077;-85
2021/08/31 12:06:49;;;;;;;6.65;5.35;;;26.70;99.90;;;;;;5031332;28;20608;-86
2021/08/31 12:09:22;;;;;;;8.63;5.25;;;26.80;99.90;;;;;;5034320;28;20078;-84
2021/08/31 12:11:48;;;;;;;12.35;4.97;;;26.60;99.90;;;;;;5033952;28;20112;-84
2021/08/31 12:14:18;;;;;;;10.82;4.80;;;26.10;99.90;;;;;;5033849;28;20103;-85
2021/08/31 12:16:45;;;;;;;9.15;4.45;;;26.60;99.90;;;;;;5034195;28;20017;-85
2021/08/31 12:19:19;;;;;;;5.75;4.38;;;26.90;99.90;;;;;;5033748;28;20025;-87
2021/08/31 12:22:03;;;;;;;8.43;4.70;;;27.10;99.90;;;;;;5035365;28;20051;-85
2021/08/31 12:24:28;;;;;;;10.80;5.18;;;26.90;99.90;;;;;;5035037;28;20057;-86
2021/08/31 12:27:05;;;;;;;8.57;4.88;;;26.80;99.90;;;;;;5034082;28;20477;-83
2021/08/31 12:29:44;;;;;;;8.85;5.30;;;27.10;99.90;;;;;;5034930;28;20072;-85
2021/08/31 12:32:09;;;;;;;11.40;5.35;;;27.40;99.90;;;;;;5033738;28;20022;-85
2021/08/31 12:34:35;;;;;;;6.88;5.00;;;27.50;99.90;;;;;;5033739;28;20028;-86
2021/08/31 12:37:00;;;;;;;7.25;4.75;;;27.50;99.90;;;;;;5033912;28;20065;-85